Date,TemperatureHighF,TemperatureAvgF,TemperatureLowF,DewpointHighF,DewpointAvgF,DewpointLowF,HumidityHigh,HumidityAvg,HumidityLow,PressureMaxIn,PressureMinIn,WindSpeedMaxMPH,WindSpeedAvgMPH,GustSpeedMaxMPH,PrecipitationSumIn
2013-1-1,35.8,33.0,32.5,35.1,31.4,24.9,98,94,73,32.13,9.45,7,0,7,0.95
2013-1-2,39.0,25.9,18.1,24.4,17.2,0.0,89,71,40,29.38,29.29,20,0,20,0.00
2013-1-3,42.3,31.5,16.2,20.7,15.0,11.0,86,52,30,29.50,29.35,8,2,9,0.04
2013-1-4,41.2,32.7,26.4,20.8,17.4,13.7,73,54,36,29.50,24.57,20,3,20,0.00
2013-1-5,45.9,32.5,21.0,26.9,20.5,16.1,93,64,39,29.56,24.57,20,1,20,1.06
2013-1-6,41.0,34.2,28.4,30.6,24.1,16.7,74,66,59,29.53,24.57,20,2,20,0.00
2013-1-7,46.0,30.8,20.3,26.7,18.9,15.6,90,64,37,29.62,24.57,32,1,32,1.05
2013-1-8,54.1,36.4,24.4,28.0,23.3,18.2,87,62,33,29.47,29.41,20,1,20,1.01
2013-1-9,57.2,44.2,33.3,47.1,34.0,26.5,98,69,40,29.68,29.41,8,1,8,0.00
2013-1-10,47.1,38.8,28.9,38.4,30.4,0.0,96,73,52,29.68,29.29,19,1,19,0.00
2013-1-11,64.0,54.9,47.1,56.5,47.9,38.4,98,79,51,29.29,29.06,19,2,19,0.37
2013-1-12,66.4,60.4,52.9,62.9,58.7,52.2,98,94,79,29.20,24.57,12,1,12,0.04
2013-1-13,64.9,58.8,36.7,60.9,56.2,34.8,98,92,73,29.32,24.57,20,3,20,0.83
2013-1-14,36.7,29.3,25.2,35.1,21.3,16.5,94,72,52,32.13,24.57,29,2,229,0.29
2013-1-15,33.1,28.9,23.5,25.4,20.7,18.2,86,72,57,62.36,24.57,86,4,86,0.29
2013-1-16,30.6,30.0,29.7,28.0,27.3,25.1,92,89,81,29.26,1.89,5,1,5,0.00
2013-1-17,38.3,31.8,27.7,24.2,19.6,12.8,73,61,52,29.56,29.35,10,1,10,0.00
2013-1-18,42.1,30.4,17.8,22.4,14.2,0.0,81,53,29,32.13,22.68,20,2,20,0.27
2013-1-19,57.4,49.9,34.0,22.7,18.7,15.0,52,30,20,32.13,22.68,57,6,57,0.00
2013-1-20,46.4,36.9,26.6,30.2,11.7,1.1,60,36,24,39.69,1.89,21,3,21,0.00
2013-1-21,33.3,23.1,13.3,16.6,3.5,-6.5,63,43,32,34.02,22.68,29,2,29,0.15
2013-1-22,54.7,14.6,6.4,23.1,-7.5,-12.7,44,36,27,107.72,1.89,21,2,21,0.00
2013-1-23,23.5,18.3,10.4,2.2,-3.1,-10.2,49,38,35,29.50,29.23,9,1,9,0.00
2013-1-24,30.6,20.9,14.2,4.3,-1.0,-8.2,49,38,25,29.71,29.23,15,3,15,0.00
2013-1-25,27.1,22.9,19.6,18.4,9.3,-0.8,78,57,38,29.59,29.17,10,2,10,0.00
2013-1-26,40.3,25.7,15.4,20.5,14.3,8.4,93,65,35,29.59,29.29,8,1,8,0.00
2013-1-27,40.3,30.4,20.1,37.1,18.9,13.0,98,64,40,29.62,29.35,65,2,65,0.17
2013-1-28,52.2,47.2,37.6,51.6,45.7,36.9,98,95,72,29.35,29.20,14,3,14,0.16
2013-1-29,69.8,58.8,49.1,56.9,52.4,48.6,98,81,51,29.26,28.79,13,3,13,0.00
2013-1-30,68.0,54.2,33.3,57.8,47.9,19.3,98,80,56,28.82,28.47,21,5,21,0.67
2013-1-31,33.8,28.1,18.1,21.0,13.3,5.0,84,54,36,29.20,28.73,12,2,15,0.00